Latest Weather Observations for Emerald

IDQ60801

Issued at 11:32 pm EST Sunday 11 December 2016 (issued every 30 minutes, with the page automatically refreshed every 10 minutes)

About weather observations | Map of weather stations | Latest weather observations for QLD | Other Formats
Station Details ID: 035264 Name: EMERALD AIRPORT Lat: -23.57 Lon: 148.18 Height: 189.4 m
Data from the previous 72 hours. | See also: Recent months at Emerald
Date/Time
EST
Temp
°C
App
Temp
°C
Dew
Point
°C
Rel
Hum
%
Delta-T
°C
Wind Press
QNH
hPa
Press
MSL
hPa
Rain since
9am
mm
Dir  Spd
km/h
Gust
km/h
Spd
kts
Gust
kts
11/11:30pm 21.2 24.0 20.9 98 0.2 ESE 7 11 4 6 1018.8 - 2.6
11/11:00pm 21.1 23.9 20.8 98 0.2 ESE 7 9 4 5 1019.0 - 2.6
11/10:30pm 21.1 23.5 20.8 98 0.2 ESE 9 11 5 6 1019.3 - 2.6
11/10:00pm 21.2 23.6 20.9 98 0.2 SE 9 11 5 6 1019.5 - 2.4
11/09:30pm 21.3 23.8 21.0 98 0.2 ESE 9 13 5 7 1019.4 - 2.4
11/09:00pm 21.3 23.4 21.0 98 0.2 SE 11 13 6 7 1019.0 1017.8 2.2
11/08:30pm 21.3 23.4 21.0 98 0.2 ESE 11 13 6 7 1018.9 - 2.0
11/08:00pm 21.4 23.2 21.1 98 0.2 ESE 13 15 7 8 1018.8 - 2.0
11/07:30pm 21.4 23.6 21.1 98 0.2 ESE 11 13 6 7 1018.6 - 2.0
11/07:00pm 21.5 23.7 21.2 98 0.2 ESE 11 15 6 8 1018.4 - 2.0
11/06:30pm 21.6 23.1 21.3 98 0.2 ESE 15 20 8 11 1017.8 - 1.8
11/06:00pm 22.0 23.5 21.3 96 0.5 ESE 15 20 8 11 1017.6 1016.4 1.8
11/05:30pm 22.0 22.5 21.2 95 0.5 ESE 20 24 11 13 1017.3 - 1.8
11/05:00pm 22.3 22.8 20.8 91 1.0 SE 19 28 10 15 1016.8 - 1.8
11/04:30pm 22.3 23.2 21.6 96 0.5 SE 19 26 10 14 1016.5 - 1.8
11/04:00pm 22.3 22.7 21.8 97 0.3 SE 22 30 12 16 1016.6 - 1.8
11/03:30pm 22.3 22.9 21.3 94 0.7 SE 20 30 11 16 1016.9 - 1.6
11/03:00pm 22.2 22.9 21.5 96 0.5 SE 20 24 11 13 1017.2 1016.0 1.6
11/02:30pm 22.1 23.1 21.8 98 0.2 SE 19 22 10 12 1017.6 - 1.6
11/02:27pm 22.2 23.6 21.9 98 0.2 SE 17 22 9 12 1017.6 - 1.6
11/02:00pm 22.4 23.7 21.7 96 0.5 SSE 17 20 9 11 1017.8 - 1.4
11/01:39pm 22.7 24.2 22.0 96 0.5 ESE 17 22 9 12 1018.0 - 1.4
11/01:30pm 23.0 24.5 21.3 90 1.1 E 15 22 8 12 1018.0 - 1.4
11/01:00pm 23.5 24.6 21.9 91 1.1 E 19 24 10 13 1018.3 - 1.2
11/12:30pm 23.0 24.2 21.4 91 1.1 ESE 17 20 9 11 1018.5 - 0.6
11/12:00pm 23.2 24.6 21.1 88 1.4 SE 15 19 8 10 1018.5 1017.3 0.6
11/11:30am 23.2 25.1 21.3 89 1.3 ESE 13 15 7 8 1018.8 - 0.6
11/11:00am 23.3 24.9 21.4 89 1.3 ESE 15 19 8 10 1018.9 - 0.2
11/10:30am 22.9 23.9 21.0 89 1.3 ESE 17 22 9 12 1018.9 - 0.0
11/10:00am 22.7 23.4 20.4 87 1.5 ESE 17 22 9 12 1018.7 - 0.0
11/09:30am 22.5 23.2 20.4 88 1.4 SE 17 20 9 11 1018.7 - 0.0
11/09:00am 22.4 22.7 20.3 88 1.4 ESE 19 28 10 15 1018.7 1017.5 30.2
11/08:30am 22.3 23.2 20.9 92 0.9 ESE 17 20 9 11 1018.6 - 30.2
11/08:00am 21.8 21.9 20.3 91 1.0 ESE 20 30 11 16 1018.3 - 30.2
11/07:30am 21.5 21.8 20.8 96 0.5 ESE 20 28 11 15 1018.1 - 30.2
11/07:00am 21.1 21.4 20.8 98 0.2 ESE 20 26 11 14 1017.9 - 30.2
11/06:30am 21.0 21.3 20.7 98 0.2 E 20 26 11 14 1017.4 - 30.2
11/06:00am 20.6 21.6 20.3 98 0.2 ESE 15 19 8 10 1017.0 1015.8 30.2
11/05:30am 20.6 20.9 20.3 98 0.2 ESE 19 24 10 13 1016.7 - 30.0
11/05:00am 20.8 21.0 20.5 98 0.2 E 20 28 11 15 1016.3 - 30.0
11/04:30am 20.6 21.2 20.3 98 0.2 ESE 17 22 9 12 1016.1 - 29.8
11/04:00am 20.6 21.6 20.3 98 0.2 E 15 19 8 10 1016.2 - 29.8
11/03:30am 20.7 21.4 20.4 98 0.2 E 17 20 9 11 1016.3 - 29.6
11/03:00am 20.9 21.3 20.6 98 0.2 E 19 22 10 12 1016.4 1015.2 29.4
11/02:30am 21.2 22.1 20.9 98 0.2 E 17 20 9 11 1016.4 - 29.4
11/02:00am 21.5 23.3 21.2 98 0.2 E 13 17 7 9 1016.7 - 29.4
11/01:30am 21.4 23.8 20.9 97 0.3 E 9 11 5 6 1017.1 - 29.4
11/01:00am 21.5 23.2 21.0 97 0.3 E 13 17 7 9 1017.4 - 29.4
11/12:30am 21.5 21.8 20.5 94 0.7 E 19 26 10 14 1017.5 - 29.4
11/12:00am 21.6 20.9 20.2 92 0.9 ENE 24 32 13 17 1017.5 1016.3 29.4
 
Date/Time
EST
Temp
°C
App
Temp
°C
Dew
Point
°C
Rel
Hum
%
Delta-T
°C
Wind Press
QNH
hPa
Press
MSL
hPa
Rain since
9am
mm
Dir  Spd
km/h
Gust
km/h
Spd
kts
Gust
kts
10/11:30pm 21.8 21.7 20.8 94 0.7 ENE 22 32 12 17 1017.4 - 29.4
10/11:18pm 21.9 21.4 20.7 93 0.8 ENE 24 33 13 18 1017.4 - 29.4
10/11:00pm 22.1 22.5 21.8 98 0.2 ENE 22 30 12 16 1017.5 - 29.4
10/10:30pm 22.1 23.5 21.8 98 0.2 ENE 17 28 9 15 1017.9 - 29.4
10/10:03pm 21.7 24.8 21.4 98 0.2 ENE 7 11 4 6 1017.9 - 29.4
10/10:00pm 21.7 24.8 21.4 98 0.2 NE 7 11 4 6 1017.9 - 29.4
10/09:30pm 21.6 24.3 21.3 98 0.2 NE 9 15 5 8 1017.6 - 29.4
10/09:00pm 21.6 23.9 21.3 98 0.2 NNE 11 17 6 9 1017.2 1016.0 29.4
10/08:30pm 21.8 23.2 21.0 95 0.5 NE 15 20 8 11 1016.8 - 29.2
10/08:00pm 21.9 23.2 20.9 94 0.7 ENE 15 19 8 10 1016.7 - 29.2
10/07:30pm 21.9 22.5 21.1 95 0.5 ENE 19 26 10 14 1016.5 - 29.2
10/07:00pm 22.0 24.4 21.5 97 0.3 NE 11 15 6 8 1016.1 - 29.2
10/06:30pm 21.9 22.1 20.5 92 0.9 NE 20 33 11 18 1015.9 - 29.2
10/06:00pm 22.6 22.7 21.2 92 0.9 ENE 22 32 12 17 1015.5 1014.2 29.2
10/05:30pm 23.6 24.7 23.1 97 0.3 ENE 22 33 12 18 1014.5 - 29.2
10/05:00pm 23.1 26.6 22.8 98 0.2 SSE 9 11 5 6 1013.6 - 29.2
10/04:30pm 22.6 27.1 22.3 98 0.2 ENE 2 6 1 3 1014.2 - 29.2
10/04:00pm 22.6 25.4 22.3 98 0.2 E 11 13 6 7 1014.2 - 29.0
10/03:30pm 22.2 25.5 21.9 98 0.2 E 7 9 4 5 1014.0 - 28.0
10/03:00pm 22.1 25.4 21.8 98 0.2 SSE 7 9 4 5 1014.5 1013.2 27.8
10/02:54pm 22.2 25.7 21.9 98 0.2 SSE 6 7 3 4 1015.0 - 27.8
10/02:30pm 22.1 24.3 21.8 98 0.2 E 13 15 7 8 1015.5 - 26.6
10/02:00pm 21.9 19.8 21.6 98 0.2 ENE 35 44 19 24 1015.5 - 12.2
10/01:35pm 23.4 22.8 22.0 92 0.9 ENE 28 35 15 19 1015.2 - 1.4
10/01:30pm 24.1 23.2 22.2 89 1.3 ENE 30 37 16 20 1015.3 - 0.6
10/01:00pm 26.9 24.5 20.0 66 4.5 E 32 41 17 22 1015.3 - 0.2
10/12:59pm 27.6 25.9 19.9 63 5.1 E 28 41 15 22 1015.2 - 0.2
10/12:30pm 29.7 30.7 17.8 48 7.6 NE 9 17 5 9 1015.0 - 0.2
10/12:00pm 29.4 29.4 17.2 47 7.7 SSE 13 20 7 11 1015.3 1014.0 0.2
10/11:30am 29.3 29.6 17.8 50 7.4 S 13 20 7 11 1015.6 - 0.2
10/11:00am 29.3 29.2 17.8 50 7.4 ESE 15 20 8 11 1015.9 - 0.2
10/10:30am 28.8 30.0 18.3 53 6.8 SSE 9 17 5 9 1016.3 - 0.2
10/10:00am 28.8 29.0 18.6 54 6.6 ESE 15 22 8 12 1016.5 - 0.2
10/09:30am 27.4 26.4 16.7 52 6.7 SSE 17 28 9 15 1016.6 - 0.0
10/09:00am 26.5 24.6 15.8 51 6.6 SSE 20 26 11 14 1016.6 1015.4 0.2
10/08:30am 24.4 22.2 14.8 55 5.8 SSE 20 26 11 14 1016.9 - 0.2
10/08:00am 23.7 21.7 14.9 57 5.3 SSE 19 26 10 14 1016.5 - 0.2
10/07:30am 23.3 21.3 15.6 62 4.7 SSE 20 26 11 14 1016.3 - 0.2
10/07:00am 23.6 21.8 16.1 62 4.6 SSE 20 28 11 15 1015.9 - 0.2
10/06:30am 24.5 27.4 21.8 85 1.8 SSE 9 13 5 7 1015.5 - 0.2
10/06:00am 23.8 27.0 22.4 92 0.9 ESE 9 11 5 6 1015.2 1013.9 0.2
10/05:30am 23.8 27.1 21.9 89 1.3 SE 7 9 4 5 1014.9 - 0.2
10/05:00am 23.9 27.4 22.2 90 1.1 ESE 7 9 4 5 1014.3 - 0.2
10/04:30am 24.0 28.5 21.5 86 1.7 CALM 0 0 0 0 1014.0 - 0.2
10/04:00am 23.9 27.6 21.4 86 1.7 NNE 4 7 2 4 1013.8 - 0.2
10/03:30am 24.0 27.1 21.5 86 1.7 N 7 9 4 5 1013.5 - 0.2
10/03:00am 24.3 27.5 21.2 83 2.1 NE 6 9 3 5 1013.4 1012.2 0.0
10/02:30am 24.4 27.2 20.9 81 2.3 NE 7 9 4 5 1013.4 - 0.0
10/02:00am 24.4 27.2 21.5 84 1.9 ENE 9 11 5 6 1013.3 - 0.0
10/01:30am 24.3 26.8 21.8 86 1.7 E 11 15 6 8 1013.5 - 0.0
10/01:00am 24.3 26.9 22.0 87 1.5 ESE 11 13 6 7 1013.6 - 0.0
10/12:30am 23.9 26.3 22.2 90 1.1 ESE 13 15 7 8 1013.8 - 0.0
10/12:00am 24.0 26.7 22.1 89 1.3 SE 11 13 6 7 1014.1 1012.8 0.0
 
Date/Time
EST
Temp
°C
App
Temp
°C
Dew
Point
°C
Rel
Hum
%
Delta-T
°C
Wind Press
QNH
hPa
Press
MSL
hPa
Rain since
9am
mm
Dir  Spd
km/h
Gust
km/h
Spd
kts
Gust
kts
09/11:30pm 24.2 27.1 22.5 90 1.1 SSE 11 13 6 7 1014.1 - 0.0
09/11:00pm 24.2 27.5 22.6 91 1.1 E 9 13 5 7 1014.4 - 0.0
09/10:30pm 24.2 27.9 23.2 94 0.7 NE 9 13 5 7 1014.6 - 0.0
09/10:00pm 24.2 27.5 23.2 94 0.7 SSE 11 15 6 8 1013.9 - 0.0
09/09:30pm 24.2 27.8 23.0 93 0.8 SSE 9 13 5 7 1013.2 - 0.0
09/09:00pm 24.1 27.6 22.2 89 1.3 E 7 11 4 6 1013.0 1011.8 0.0
09/08:30pm 24.2 26.5 21.3 84 1.9 SE 11 15 6 8 1012.7 - 0.0
09/08:00pm 24.4 27.2 21.5 84 1.9 ESE 9 11 5 6 1012.7 - 0.0
09/07:30pm 24.5 26.3 21.2 82 2.2 SSE 13 17 7 9 1012.3 - 0.0
09/07:00pm 24.8 27.9 22.1 85 1.8 SE 9 13 5 7 1012.1 - 0.0
09/06:30pm 25.1 26.4 20.8 77 2.8 S 15 20 8 11 1012.1 - 0.0
09/06:00pm 26.7 26.6 19.6 65 4.6 S 19 26 10 14 1011.8 1010.6 0.0
09/05:30pm 27.1 26.2 19.9 64 4.7 S 24 33 13 18 1011.7 - 0.0
09/05:00pm 27.0 24.9 20.6 68 4.2 S 32 39 17 21 1011.2 - 0.0
09/04:30pm 26.9 25.8 19.5 64 4.8 S 24 35 13 19 1010.7 - 0.0
09/04:00pm 27.6 26.1 19.4 61 5.3 S 26 39 14 21 1010.9 - 0.0
09/03:30pm 28.5 27.1 20.5 62 5.3 S 28 37 15 20 1010.9 - 0.0
09/03:00pm 29.1 26.6 18.8 53 6.7 S 30 39 16 21 1010.8 1009.5 0.0
09/02:30pm 30.0 27.4 17.8 48 7.8 S 28 37 15 20 1010.8 - 0.0
09/02:00pm 30.9 28.2 17.6 45 8.5 S 28 37 15 20 1011.1 - 0.0
09/01:30pm 31.7 28.5 17.2 42 9.3 S 30 37 16 20 1011.0 - 0.0
09/01:00pm 32.6 29.8 17.2 39 9.9 S 28 41 15 22 1010.9 - 0.0
09/12:30pm 33.6 32.9 17.3 37 10.5 SSE 17 24 9 13 1011.0 - 0.0
09/12:00pm 33.4 31.7 17.1 37 10.5 SE 22 32 12 17 1011.3 1010.1 0.0
09/11:30am 33.2 32.0 17.0 38 10.4 SSE 19 44 10 24 1011.5 - 0.0
09/11:00am 33.0 32.6 17.2 39 10.2 ESE 15 26 8 14 1012.1 - 0.0
09/10:30am 32.1 31.7 17.2 41 9.5 SE 15 28 8 15 1012.5 - 0.0
09/10:00am 31.4 30.6 16.2 40 9.6 E 15 20 8 11 1012.6 - 0.0
09/09:30am 30.5 29.3 16.1 41 9.0 ESE 17 28 9 15 1012.6 - 0.0
09/09:00am 29.9 28.7 16.0 43 8.7 ESE 17 24 9 13 1012.9 1011.7 0.0
09/08:30am 28.3 27.0 16.9 50 7.2 ENE 19 28 10 15 1012.9 - 0.0
09/08:00am 27.4 26.5 18.1 57 5.9 ENE 20 28 11 15 1013.0 - 0.0
09/07:30am 26.1 26.0 18.8 64 4.7 ESE 17 20 9 11 1013.2 - 0.0
09/07:00am 25.2 25.9 18.9 68 4.0 ESE 13 17 7 9 1013.2 - 0.0
09/06:30am 24.4 25.0 18.6 70 3.7 SSE 13 15 7 8 1013.2 - 0.0
09/06:00am 24.3 25.6 19.4 74 3.2 SE 11 15 6 8 1012.8 1011.6 0.0
09/05:30am 23.8 24.8 18.7 73 3.3 ESE 11 15 6 8 1012.4 - 0.0
09/05:00am 24.0 25.1 18.0 69 3.8 ESE 9 13 5 7 1012.2 - 0.0
09/04:30am 24.6 25.0 18.1 67 4.1 SE 13 15 7 8 1011.8 - 0.0
09/04:00am 24.8 25.7 18.3 67 4.1 SE 11 13 6 7 1011.8 - 0.0
09/03:30am 24.9 26.0 18.1 66 4.3 ESE 9 11 5 6 1011.8 - 0.0
09/03:00am 25.6 26.7 18.0 63 4.8 ESE 9 11 5 6 1011.4 1010.2 0.0
09/02:30am 25.6 26.5 18.3 64 4.7 SE 11 13 6 7 1011.3 - 0.0
09/02:00am 25.6 25.9 18.8 66 4.4 E 15 19 8 10 1010.7 - 0.0
09/01:30am 25.9 26.5 18.6 64 4.7 E 13 17 7 9 1010.7 - 0.0
09/01:00am 26.6 26.4 18.5 61 5.2 E 17 20 9 11 1010.7 - 0.0
09/12:30am 26.9 27.8 18.5 60 5.4 E 11 15 6 8 1011.2 - 0.0
09/12:00am 27.0 27.1 18.3 59 5.6 ENE 15 20 8 11 1010.9 1009.6 0.0

Other Formats:

Comma delimited format used in spreadsheet applications
http://www.bom.gov.au/fwo/IDQ60801/IDQ60801.94363.axf

JavaScript Object Notation format (JSON) in row-major order
http://www.bom.gov.au/fwo/IDQ60801/IDQ60801.94363.json